createdAt,value
2022-12-04T00:00:32.454Z,51.63
2022-12-04T00:03:36.861Z,49.43
2022-12-04T00:06:40.547Z,51.87
2022-12-04T00:09:44.278Z,51.13
2022-12-04T00:12:47.959Z,50.70
2022-12-04T00:15:53.046Z,52.17
2022-12-04T00:18:57.227Z,51.57
2022-12-04T00:22:00.920Z,48.53
2022-12-04T00:25:04.686Z,51.33
2022-12-04T00:28:08.342Z,51.57
2022-12-04T00:31:16.204Z,49.97
2022-12-04T00:34:20.189Z,50.20
2022-12-04T00:37:23.844Z,51.90
2022-12-04T00:40:27.446Z,45.80
2022-12-04T00:43:32.698Z,46.97
2022-12-04T00:46:37.719Z,46.83
2022-12-04T00:49:41.283Z,49.13
2022-12-04T00:52:44.878Z,52.03
2022-12-04T00:55:48.607Z,50.50
2022-12-04T00:58:54.097Z,49.90
2022-12-04T01:01:59.063Z,50.30
2022-12-04T01:05:03.045Z,51.70
2022-12-04T01:08:06.847Z,47.20
2022-12-04T01:11:10.509Z,52.00
2022-12-04T01:14:14.286Z,51.57
2022-12-04T01:17:19.280Z,53.50
2022-12-04T01:20:22.987Z,45.37
2022-12-04T01:23:26.762Z,52.73
2022-12-04T01:26:30.841Z,49.87
2022-12-04T01:29:34.638Z,51.37
2022-12-04T01:32:39.658Z,50.50
2022-12-04T01:35:43.262Z,53.43
2022-12-04T01:38:47.117Z,47.03
2022-12-04T01:41:50.668Z,50.70
2022-12-04T01:45:38.385Z,49.27
2022-12-04T01:48:51.925Z,50.00
2022-12-04T01:52:02.133Z,50.97
2022-12-04T01:55:07.065Z,47.97
2022-12-04T01:58:11.450Z,50.73
2022-12-04T02:01:15.189Z,54.13
2022-12-04T02:04:20.822Z,54.20
2022-12-04T02:07:24.635Z,52.60
2022-12-04T02:10:44.027Z,54.60
2022-12-04T02:14:02.990Z,50.73
2022-12-04T02:17:19.004Z,54.37
2022-12-04T02:20:38.205Z,50.47
2022-12-04T02:24:27.634Z,57.97
2022-12-04T02:28:03.515Z,53.10
2022-12-04T02:31:13.564Z,55.70
2022-12-04T02:34:26.971Z,47.93
2022-12-04T02:37:36.913Z,59.57
2022-12-04T02:40:49.891Z,50.43
2022-12-04T02:43:59.793Z,50.27
2022-12-04T02:47:08.450Z,51.43
2022-12-04T02:50:16.981Z,51.23
2022-12-04T02:53:25.877Z,57.97
2022-12-04T02:56:35.362Z,48.73
2022-12-04T02:59:44.745Z,50.30
2022-12-04T03:02:57.879Z,60.43
2022-12-04T03:06:06.915Z,53.07
2022-12-04T03:09:18.405Z,56.93
2022-12-04T03:12:31.723Z,53.50
2022-12-04T03:15:45.002Z,48.13
2022-12-04T03:18:57.641Z,54.00
2022-12-04T03:22:07.802Z,52.57
2022-12-04T03:25:13.942Z,48.67
2022-12-04T03:28:29.909Z,47.17
2022-12-04T03:31:46.125Z,50.20
2022-12-04T03:34:58.062Z,51.27
2022-12-04T03:38:13.545Z,50.27
2022-12-04T03:41:30.064Z,55.23
2022-12-04T03:44:42.041Z,56.80
2022-12-04T03:47:56.582Z,52.53
2022-12-04T03:51:10.042Z,52.63
2022-12-04T03:54:19.259Z,55.40
2022-12-04T03:57:29.526Z,57.37
2022-12-04T04:00:38.026Z,48.20
2022-12-04T04:03:49.706Z,56.43
2022-12-04T04:07:00.450Z,51.63
2022-12-04T04:10:15.126Z,57.50
2022-12-04T04:13:42.586Z,55.37
2022-12-04T04:17:13.494Z,54.43
2022-12-04T04:20:44.662Z,48.43
2022-12-04T04:24:10.217Z,50.10
2022-12-04T04:27:14.905Z,52.97
2022-12-04T04:30:18.727Z,54.13
2022-12-04T04:33:22.633Z,47.77
2022-12-04T04:36:42.770Z,53.10
2022-12-04T04:39:56.487Z,50.93
2022-12-04T04:43:07.341Z,57.57
2022-12-04T04:46:21.164Z,52.90
2022-12-04T04:49:30.705Z,50.83
2022-12-04T04:52:38.816Z,56.20
2022-12-04T04:55:43.858Z,54.97
2022-12-04T04:58:47.517Z,52.43
2022-12-04T05:01:51.459Z,50.60
2022-12-04T05:04:55.495Z,51.10
2022-12-04T05:08:00.517Z,47.90
2022-12-04T05:11:05.754Z,48.33
2022-12-04T05:14:09.734Z,55.13
2022-12-04T05:17:13.310Z,53.73
2022-12-04T05:20:17.585Z,52.07
2022-12-04T05:23:22.962Z,48.23
2022-12-04T05:26:27.379Z,54.10
2022-12-04T05:29:35.702Z,48.03
2022-12-04T05:32:39.931Z,52.93
2022-12-04T05:35:43.585Z,46.97
2022-12-04T05:38:48.794Z,49.30
2022-12-04T05:41:52.453Z,48.80
2022-12-04T05:44:56.099Z,54.20
2022-12-04T05:47:59.727Z,50.90
2022-12-04T05:51:07.795Z,49.57
2022-12-04T05:54:12.806Z,49.20
2022-12-04T05:57:16.474Z,46.40
2022-12-04T06:00:20.863Z,47.80
2022-12-04T06:03:24.796Z,53.67
2022-12-04T06:06:28.968Z,49.37
2022-12-04T06:09:34.024Z,49.77
2022-12-04T06:12:37.722Z,49.27
2022-12-04T06:15:42.349Z,63.87
2022-12-04T06:18:46.316Z,50.93
2022-12-04T06:21:54.678Z,49.07
2022-12-04T06:24:59.689Z,49.63
2022-12-04T06:28:03.360Z,53.00
2022-12-04T06:31:10.382Z,55.40
2022-12-04T06:34:14.198Z,47.23
2022-12-04T06:37:17.791Z,49.07
2022-12-04T06:40:22.882Z,46.87
2022-12-04T06:43:26.923Z,47.83
2022-12-04T06:46:33.288Z,46.80
2022-12-04T06:49:37.445Z,53.07
2022-12-04T06:52:41.068Z,49.47
2022-12-04T06:55:50.720Z,50.87
2022-12-04T06:58:57.547Z,48.20
2022-12-04T07:02:01.136Z,50.53
2022-12-04T07:05:05.236Z,51.63
2022-12-04T07:08:08.787Z,45.43
2022-12-04T07:11:14.957Z,47.17
2022-12-04T07:14:18.505Z,45.37
2022-12-04T07:17:22.197Z,53.03
2022-12-04T07:20:25.881Z,50.80
2022-12-04T07:23:29.422Z,45.70
2022-12-04T07:26:34.420Z,46.90
2022-12-04T07:29:38.082Z,51.07
2022-12-04T07:32:42.016Z,51.10
2022-12-04T07:35:45.539Z,46.83
2022-12-04T07:38:53.062Z,42.63
2022-12-04T07:41:58.421Z,47.83
2022-12-04T07:45:01.979Z,50.80
2022-12-04T07:48:06.622Z,52.00
2022-12-04T07:51:13.521Z,55.93
2022-12-04T07:54:17.490Z,46.20
2022-12-04T07:57:22.592Z,46.90
2022-12-04T08:00:26.273Z,51.87
2022-12-04T08:03:29.903Z,49.20
2022-12-04T08:06:36.168Z,48.33
2022-12-04T08:09:40.181Z,44.93
2022-12-04T08:12:45.182Z,43.60
2022-12-04T08:15:48.847Z,47.43
2022-12-04T08:18:52.892Z,45.47
2022-12-04T08:21:56.849Z,42.63
2022-12-04T08:25:03.697Z,44.60
2022-12-04T08:28:11.997Z,43.60
2022-12-04T08:31:18.776Z,54.57
2022-12-04T08:34:22.590Z,44.17
2022-12-04T08:37:27.639Z,49.73
2022-12-04T08:40:31.212Z,48.77
2022-12-04T08:43:36.553Z,46.70
2022-12-04T08:46:40.643Z,47.20
2022-12-04T08:49:44.411Z,54.07
2022-12-04T08:52:48.040Z,47.33
2022-12-04T08:55:52.463Z,46.80
2022-12-04T08:58:59.718Z,45.87
2022-12-04T09:02:03.372Z,44.70
2022-12-04T09:05:07.530Z,46.17
2022-12-04T09:08:11.229Z,54.70
2022-12-04T09:11:17.878Z,44.90
2022-12-04T09:14:25.981Z,47.73
2022-12-04T09:17:29.635Z,47.67
2022-12-04T09:20:33.252Z,49.77
2022-12-04T09:23:39.166Z,49.27
2022-12-04T09:26:43.374Z,42.63
2022-12-04T09:29:48.292Z,50.30
2022-12-04T09:32:51.938Z,50.53
2022-12-04T09:35:55.734Z,45.43
2022-12-04T09:38:59.922Z,43.97
2022-12-04T09:42:31.352Z,47.73
2022-12-04T09:45:48.190Z,46.53
2022-12-04T09:48:54.053Z,48.17
2022-12-04T09:52:03.469Z,48.90
2022-12-04T09:55:16.012Z,43.20
2022-12-04T09:58:24.319Z,41.23
2022-12-04T10:01:40.646Z,49.87
2022-12-04T10:04:44.330Z,46.67
2022-12-04T10:08:04.354Z,43.77
2022-12-04T10:11:18.498Z,45.23
2022-12-04T10:15:08.878Z,49.43
2022-12-04T10:18:37.209Z,49.43
2022-12-04T10:21:57.169Z,44.37
2022-12-04T10:25:07.947Z,52.03
2022-12-04T10:28:23.950Z,51.63
2022-12-04T10:31:30.736Z,49.47
2022-12-04T10:34:37.321Z,47.77
2022-12-04T10:37:45.696Z,44.70
2022-12-04T10:40:57.163Z,45.93
2022-12-04T10:44:01.484Z,52.10
2022-12-04T10:47:06.552Z,48.70
2022-12-04T10:50:20.780Z,48.80
2022-12-04T10:53:33.486Z,43.57
2022-12-04T10:56:37.251Z,44.50
2022-12-04T10:59:50.720Z,44.00
2022-12-04T11:02:57.541Z,46.77
2022-12-04T11:06:06.043Z,45.40
2022-12-04T11:09:23.617Z,50.77
2022-12-04T11:12:27.616Z,50.70
2022-12-04T11:15:53.881Z,50.03
2022-12-04T11:18:57.544Z,46.03
2022-12-04T11:22:14.112Z,52.33
2022-12-04T11:25:21.027Z,48.77
2022-12-04T11:28:46.111Z,46.80
2022-12-04T11:31:53.112Z,48.50
2022-12-04T11:35:05.746Z,47.00
2022-12-04T11:38:17.341Z,51.40
2022-12-04T11:41:30.798Z,40.47
2022-12-04T11:44:37.559Z,49.60
2022-12-04T11:47:41.143Z,43.00
2022-12-04T11:50:58.789Z,45.07
2022-12-04T11:54:21.581Z,41.93
2022-12-04T11:57:37.393Z,42.87
2022-12-04T12:00:56.270Z,39.27
2022-12-04T12:04:41.362Z,38.37
2022-12-04T12:08:02.183Z,36.80
2022-12-04T12:11:21.417Z,42.07
2022-12-04T12:14:36.000Z,40.37
2022-12-04T12:17:48.882Z,42.10
2022-12-04T12:21:04.576Z,43.13
2022-12-04T12:24:24.963Z,42.97
2022-12-04T12:27:57.534Z,43.40
2022-12-04T12:31:24.593Z,43.03
2022-12-04T12:34:38.642Z,42.13
2022-12-04T12:37:50.968Z,44.83
2022-12-04T12:41:01.794Z,40.63
2022-12-04T12:44:15.223Z,46.03
2022-12-04T12:47:24.949Z,41.90
2022-12-04T12:50:40.585Z,47.10
2022-12-04T12:53:59.089Z,43.47
2022-12-04T12:57:13.835Z,44.73
2022-12-04T13:00:25.045Z,45.50
2022-12-04T13:03:41.075Z,49.83
2022-12-04T13:06:48.726Z,44.43
2022-12-04T13:10:03.558Z,41.10
2022-12-04T13:13:18.556Z,69.07
2022-12-04T13:16:29.526Z,44.37
2022-12-04T13:19:43.382Z,43.50
2022-12-04T13:23:10.252Z,47.83
2022-12-04T13:26:35.629Z,47.60
2022-12-04T13:30:02.671Z,44.37
2022-12-04T13:33:42.676Z,39.90
2022-12-04T13:37:35.147Z,44.33
2022-12-04T13:40:42.533Z,44.03
2022-12-04T13:43:51.113Z,42.53
2022-12-04T13:47:00.559Z,39.33
2022-12-04T13:50:28.753Z,41.97
2022-12-04T13:53:35.184Z,40.77
2022-12-04T13:56:40.488Z,40.17
2022-12-04T13:59:45.596Z,37.87
2022-12-04T14:02:54.297Z,42.47
2022-12-04T14:06:05.228Z,48.27
2022-12-04T14:09:26.107Z,37.60
2022-12-04T14:12:34.827Z,37.00
2022-12-04T14:15:40.030Z,36.60
2022-12-04T14:18:50.426Z,41.37
2022-12-04T14:21:56.057Z,35.83
2022-12-04T14:25:25.718Z,37.53
2022-12-04T14:28:42.708Z,39.73
2022-12-04T14:31:46.787Z,37.67
2022-12-04T14:34:51.899Z,35.37
2022-12-04T14:38:02.858Z,36.90
2022-12-04T14:41:07.119Z,41.27
2022-12-04T14:44:28.911Z,41.80
2022-12-04T14:47:48.599Z,39.37
2022-12-04T14:51:07.276Z,40.73
2022-12-04T14:54:27.916Z,35.07
2022-12-04T14:57:47.617Z,40.80
2022-12-04T15:00:53.990Z,37.40
2022-12-04T15:04:07.190Z,34.60
2022-12-04T15:07:11.470Z,35.23
2022-12-04T15:10:41.173Z,38.17
2022-12-04T15:13:45.332Z,40.40
2022-12-04T15:16:49.758Z,39.77
2022-12-04T15:19:53.461Z,34.27
2022-12-04T15:22:59.014Z,42.60
2022-12-04T15:26:08.919Z,39.63
2022-12-04T15:29:23.845Z,38.73
2022-12-04T15:32:29.729Z,43.10
2022-12-04T15:35:35.952Z,41.40
2022-12-04T15:38:41.521Z,43.57
2022-12-04T15:41:46.877Z,63.40
2022-12-04T15:45:01.001Z,101.13
2022-12-04T15:48:05.023Z,43.20
2022-12-04T15:51:10.163Z,38.07
2022-12-04T15:54:22.938Z,37.50
2022-12-04T15:57:32.573Z,40.30
2022-12-04T16:00:39.941Z,37.60
2022-12-04T16:03:50.581Z,38.27
2022-12-04T16:06:54.942Z,35.20
2022-12-04T16:10:04.160Z,37.83
2022-12-04T16:13:28.195Z,38.23
2022-12-04T16:16:32.151Z,38.70
2022-12-04T16:19:38.775Z,39.40
2022-12-04T16:22:43.844Z,42.57
2022-12-04T16:25:51.123Z,41.93
2022-12-04T16:28:59.316Z,42.57
2022-12-04T16:32:03.779Z,36.37
2022-12-04T16:35:08.706Z,39.03
2022-12-04T16:38:17.671Z,46.43
2022-12-04T16:41:22.322Z,47.17
2022-12-04T16:44:27.534Z,34.90
2022-12-04T16:47:31.136Z,41.17
2022-12-04T16:50:35.046Z,39.50
2022-12-04T16:53:38.689Z,38.70
2022-12-04T16:56:42.857Z,43.40
2022-12-04T16:59:47.795Z,39.83
2022-12-04T17:02:51.819Z,44.13
2022-12-04T17:05:55.739Z,39.40
2022-12-04T17:08:59.466Z,40.93
2022-12-04T17:12:03.026Z,41.27
2022-12-04T17:15:10.078Z,43.17
2022-12-04T17:18:19.280Z,43.60
2022-12-04T17:21:24.687Z,40.00
2022-12-04T17:24:28.359Z,41.37
2022-12-04T17:27:32.358Z,42.70
2022-12-04T17:30:37.399Z,39.67
2022-12-04T17:33:41.055Z,42.37
2022-12-04T17:36:44.698Z,44.50
2022-12-04T17:39:48.278Z,42.70
2022-12-04T17:42:51.893Z,44.77
2022-12-04T17:45:57.595Z,42.87
2022-12-04T17:49:06.607Z,41.03
2022-12-04T17:52:11.237Z,45.67
2022-12-04T17:55:15.108Z,40.67
2022-12-04T17:58:18.697Z,42.83
2022-12-04T18:01:28.087Z,43.60
2022-12-04T18:04:31.791Z,47.00
2022-12-04T18:07:35.481Z,42.97
2022-12-04T18:10:39.129Z,44.43
2022-12-04T18:13:43.104Z,69.07
2022-12-04T18:16:53.364Z,51.27
2022-12-04T18:20:02.638Z,44.10
2022-12-04T18:23:08.086Z,53.03
2022-12-04T18:26:14.727Z,45.33
2022-12-04T18:29:27.788Z,46.30
2022-12-04T18:32:32.799Z,51.53
2022-12-04T18:35:36.848Z,44.87
2022-12-04T18:38:41.160Z,45.83
2022-12-04T18:41:45.482Z,44.47
2022-12-04T18:44:49.388Z,44.13
2022-12-04T18:47:54.531Z,50.77
2022-12-04T18:50:58.423Z,47.30
2022-12-04T18:54:05.391Z,44.17
2022-12-04T18:57:09.418Z,49.47
2022-12-04T19:00:14.481Z,46.87
2022-12-04T19:03:19.446Z,49.63
2022-12-04T19:06:27.449Z,47.43
2022-12-04T19:10:09.419Z,43.30
2022-12-04T19:12:59.441Z,41.00
2022-12-04T19:16:03.368Z,43.50
2022-12-04T19:19:09.229Z,46.17
2022-12-04T19:22:13.313Z,46.70
2022-12-04T19:25:17.132Z,49.93
2022-12-04T19:28:20.718Z,45.97
2022-12-04T19:31:29.147Z,45.53
2022-12-04T19:34:34.707Z,51.60
2022-12-04T19:37:41.799Z,45.87
2022-12-04T19:40:45.862Z,47.33
2022-12-04T19:43:51.701Z,46.27
2022-12-04T19:46:55.574Z,45.20
2022-12-04T19:50:00.747Z,46.57
2022-12-04T19:53:04.676Z,39.37
2022-12-04T19:56:12.106Z,46.53
2022-12-04T19:59:15.851Z,43.70
2022-12-04T20:02:19.872Z,43.17
2022-12-04T20:05:24.990Z,39.47
2022-12-04T20:08:28.596Z,43.13
2022-12-04T20:11:32.807Z,39.47
2022-12-04T20:14:36.538Z,44.40
2022-12-04T20:17:40.246Z,42.80
2022-12-04T20:20:47.799Z,40.43
2022-12-04T20:23:54.351Z,37.30
2022-12-04T20:26:57.984Z,40.00
2022-12-04T20:30:01.808Z,43.07
2022-12-04T20:33:05.560Z,99.20
2022-12-04T20:36:12.293Z,99.70
2022-12-04T20:39:18.103Z,33.20
2022-12-04T20:42:21.963Z,45.33
2022-12-04T20:45:27.204Z,40.43
2022-12-04T20:48:31.439Z,39.87
2022-12-04T20:51:41.066Z,28.93
2022-12-04T20:54:44.846Z,29.93
2022-12-04T20:57:49.927Z,30.17
2022-12-04T21:00:53.611Z,26.83
2022-12-04T21:03:59.843Z,31.57
2022-12-04T21:07:04.919Z,30.17
2022-12-04T21:10:10.407Z,30.77
2022-12-04T21:13:31.982Z,32.67
2022-12-04T21:16:35.796Z,30.60
2022-12-04T21:19:39.767Z,31.57
2022-12-04T21:22:44.998Z,31.93
2022-12-04T21:25:48.602Z,36.30
2022-12-04T21:28:52.278Z,31.10
2022-12-04T21:31:55.902Z,29.93
2022-12-04T21:35:01.655Z,30.53
2022-12-04T21:38:06.660Z,30.57
2022-12-04T21:41:31.503Z,30.63
2022-12-04T21:44:35.181Z,38.70
2022-12-04T21:47:39.023Z,33.77
2022-12-04T21:50:42.606Z,32.23
2022-12-04T21:53:47.655Z,32.77
2022-12-04T21:56:51.353Z,35.00
2022-12-04T21:59:55.423Z,35.70
2022-12-04T22:02:59.849Z,34.47
2022-12-04T22:06:03.499Z,36.70
2022-12-04T22:09:12.160Z,38.60
2022-12-04T22:12:41.163Z,36.83
2022-12-04T22:15:41.607Z,32.90
2022-12-04T22:18:46.310Z,34.67
2022-12-04T22:21:50.098Z,37.20
2022-12-04T22:24:55.131Z,36.17
2022-12-04T22:27:59.887Z,33.80
2022-12-04T22:31:04.536Z,36.83
2022-12-04T22:34:08.903Z,34.77
2022-12-04T22:37:12.676Z,38.50
2022-12-04T22:40:18.337Z,37.17
2022-12-04T22:43:21.956Z,36.63
2022-12-04T22:46:25.710Z,34.07
2022-12-04T22:49:29.373Z,40.03
2022-12-04T22:52:34.041Z,38.73
2022-12-04T22:55:39.010Z,38.80
2022-12-04T22:58:44.270Z,40.17
2022-12-04T23:01:47.863Z,37.27
2022-12-04T23:04:51.528Z,34.33
2022-12-04T23:07:55.408Z,39.43
2022-12-04T23:11:05.498Z,36.97
2022-12-04T23:14:14.670Z,35.30
2022-12-04T23:17:18.261Z,33.60
2022-12-04T23:20:21.887Z,36.77
2022-12-04T23:23:25.599Z,36.43
2022-12-04T23:26:34.106Z,42.07
2022-12-04T23:29:52.689Z,40.43
2022-12-04T23:32:57.026Z,38.83
2022-12-04T23:36:04.502Z,38.67
2022-12-04T23:39:08.061Z,41.90
2022-12-04T23:42:13.026Z,39.57
2022-12-04T23:45:24.154Z,39.83
2022-12-04T23:48:28.609Z,39.00
2022-12-04T23:51:32.271Z,38.67
2022-12-04T23:54:37.702Z,38.80
2022-12-04T23:57:42.676Z,39.70
